createdAt,value
2023-05-16T00:03:10.667Z,14.59
2023-05-16T00:08:13.029Z,14.52
2023-05-16T00:13:15.116Z,14.48
2023-05-16T00:18:17.149Z,14.47
2023-05-16T00:23:19.001Z,14.47
2023-05-16T00:28:20.942Z,14.42
2023-05-16T00:33:22.845Z,14.36
2023-05-16T00:38:26.681Z,14.33
2023-05-16T00:43:28.779Z,14.30
2023-05-16T00:48:30.814Z,14.21
2023-05-16T00:53:33.022Z,14.12
2023-05-16T00:58:35.601Z,14.04
2023-05-16T01:03:38.165Z,13.90
2023-05-16T01:08:41.746Z,13.78
2023-05-16T01:14:03.930Z,13.62
2023-05-16T01:19:12.117Z,13.51
2023-05-16T01:24:27.547Z,13.42
2023-05-16T01:29:29.397Z,13.28
2023-05-16T01:34:31.409Z,13.19
2023-05-16T01:39:54.629Z,13.08
2023-05-16T01:45:00.167Z,13.04
2023-05-16T01:50:14.510Z,13.02
2023-05-16T01:55:19.284Z,13.03
2023-05-16T02:00:22.330Z,13.01
2023-05-16T02:05:24.169Z,13.01
2023-05-16T02:10:26.866Z,13.02
2023-05-16T02:15:28.863Z,13.04
2023-05-16T02:20:31.449Z,13.09
2023-05-16T02:25:33.322Z,13.10
2023-05-16T02:30:35.251Z,13.20
2023-05-16T02:35:37.094Z,13.32
2023-05-16T02:40:38.905Z,13.51
2023-05-16T02:45:40.916Z,13.66
2023-05-16T02:50:42.757Z,13.81
2023-05-16T02:55:44.640Z,13.89
2023-05-16T03:00:48.256Z,14.00
2023-05-16T03:05:50.287Z,14.14
2023-05-16T03:10:52.265Z,14.24
2023-05-16T03:15:54.264Z,14.35
2023-05-16T03:20:57.541Z,14.48
2023-05-16T03:25:59.532Z,14.59
2023-05-16T03:31:01.428Z,14.79
2023-05-16T03:36:03.700Z,15.00
2023-05-16T03:41:05.716Z,15.19
2023-05-16T03:46:07.929Z,15.34
2023-05-16T03:51:09.966Z,15.54
2023-05-16T03:56:11.943Z,15.75
2023-05-16T04:01:13.981Z,15.94
2023-05-16T04:06:15.931Z,16.07
2023-05-16T04:11:18.040Z,16.26
2023-05-16T04:16:20.089Z,16.39
2023-05-16T04:21:22.471Z,16.50
2023-05-16T04:26:25.081Z,16.59
2023-05-16T04:31:27.185Z,16.70
2023-05-16T04:36:30.311Z,16.81
2023-05-16T04:41:32.914Z,17.00
2023-05-16T04:46:34.975Z,17.18
2023-05-16T04:51:37.127Z,17.32
2023-05-16T04:56:39.042Z,17.46
2023-05-16T05:01:41.186Z,17.51
2023-05-16T05:06:43.698Z,17.64
2023-05-16T05:11:46.583Z,17.82
2023-05-16T05:16:48.539Z,18.00
2023-05-16T05:21:50.512Z,18.59
2023-05-16T05:26:52.616Z,19.70
2023-05-16T05:31:54.624Z,20.50
2023-05-16T05:36:56.819Z,21.55
2023-05-16T05:41:58.907Z,22.39
2023-05-16T05:47:00.988Z,22.77
2023-05-16T05:52:03.048Z,23.43
2023-05-16T05:57:05.099Z,23.83
2023-05-16T06:02:08.081Z,23.80
2023-05-16T06:07:09.945Z,23.51
2023-05-16T06:12:11.967Z,23.13
2023-05-16T06:17:14.105Z,23.88
2023-05-16T06:22:16.203Z,24.52
2023-05-16T06:27:18.044Z,25.10
2023-05-16T06:32:20.000Z,25.44
2023-05-16T06:37:23.672Z,26.33
2023-05-16T06:42:25.682Z,26.89
2023-05-16T06:47:27.813Z,27.63
2023-05-16T06:52:30.865Z,28.01
2023-05-16T06:57:32.901Z,28.89
2023-05-16T07:02:34.915Z,29.04
2023-05-16T07:07:37.034Z,29.57
2023-05-16T07:12:41.570Z,30.23
2023-05-16T07:17:43.620Z,30.58
2023-05-16T07:22:48.432Z,30.43
2023-05-16T07:27:50.637Z,30.41
2023-05-16T07:32:52.578Z,30.07
2023-05-16T07:37:54.644Z,30.74
2023-05-16T07:42:56.694Z,31.05
2023-05-16T07:48:00.267Z,31.63
2023-05-16T07:53:02.321Z,31.46
2023-05-16T07:58:04.411Z,32.55
2023-05-16T08:03:07.029Z,32.44
2023-05-16T08:08:09.091Z,32.47
2023-05-16T08:13:11.264Z,32.55
2023-05-16T08:18:14.836Z,33.01
2023-05-16T08:23:16.786Z,33.22
2023-05-16T08:28:18.752Z,33.61
2023-05-16T08:33:20.786Z,34.31
2023-05-16T08:38:22.784Z,35.04
2023-05-16T08:43:24.651Z,35.28
2023-05-16T08:48:28.497Z,35.14
2023-05-16T08:53:41.198Z,34.31
2023-05-16T08:58:43.094Z,35.25
2023-05-16T09:03:45.074Z,35.74
2023-05-16T09:08:47.110Z,36.41
2023-05-16T09:13:49.413Z,36.44
2023-05-16T09:18:58.777Z,35.86
2023-05-16T09:24:05.085Z,35.38
2023-05-16T09:29:13.819Z,36.28
2023-05-16T09:34:15.813Z,36.64
2023-05-16T09:39:17.752Z,37.20
2023-05-16T09:44:19.829Z,37.40
2023-05-16T09:49:21.891Z,36.87
2023-05-16T09:54:33.619Z,36.19
2023-05-16T09:59:36.033Z,35.23
2023-05-16T10:04:38.643Z,35.70
2023-05-16T10:09:41.073Z,36.31
2023-05-16T10:14:44.473Z,35.77
2023-05-16T10:19:47.040Z,37.68
2023-05-16T10:24:52.279Z,38.27
2023-05-16T10:29:55.227Z,36.95
2023-05-16T10:34:57.559Z,36.14
2023-05-16T10:40:01.204Z,35.68
2023-05-16T10:45:15.908Z,35.90
2023-05-16T10:50:30.970Z,36.57
2023-05-16T10:55:33.004Z,36.19
2023-05-16T11:00:35.005Z,35.29
2023-05-16T11:05:37.233Z,34.71
2023-05-16T11:10:39.282Z,34.87
2023-05-16T11:15:41.346Z,34.75
2023-05-16T11:20:43.538Z,35.37
2023-05-16T11:25:46.259Z,36.31
2023-05-16T11:30:52.971Z,36.26
2023-05-16T11:36:15.253Z,36.41
2023-05-16T11:41:18.842Z,35.55
2023-05-16T11:46:21.089Z,34.84
2023-05-16T11:51:23.364Z,34.35
2023-05-16T11:56:25.526Z,34.41
2023-05-16T12:01:34.408Z,34.30
2023-05-16T12:06:36.307Z,33.48
2023-05-16T12:11:38.847Z,33.55
2023-05-16T12:16:44.169Z,33.45
2023-05-16T12:21:46.147Z,33.34
2023-05-16T12:26:48.016Z,33.40
2023-05-16T12:31:52.749Z,33.62
2023-05-16T12:36:54.903Z,32.54
2023-05-16T12:41:56.834Z,31.77
2023-05-16T12:46:59.266Z,31.78
2023-05-16T12:52:05.812Z,31.43
2023-05-16T12:57:10.305Z,30.94
2023-05-16T13:02:12.263Z,30.06
2023-05-16T13:07:14.103Z,30.40
2023-05-16T13:12:16.077Z,30.47
2023-05-16T13:17:18.001Z,29.98
2023-05-16T13:22:19.925Z,29.53
2023-05-16T13:27:21.797Z,29.69
2023-05-16T13:32:23.785Z,29.20
2023-05-16T13:37:25.869Z,28.76
2023-05-16T13:42:27.961Z,27.76
2023-05-16T13:47:29.914Z,26.80
2023-05-16T13:52:32.037Z,25.88
2023-05-16T13:57:34.349Z,25.18
2023-05-16T14:02:36.447Z,24.95
2023-05-16T14:07:38.652Z,24.71
2023-05-16T14:12:40.793Z,24.48
2023-05-16T14:17:42.774Z,24.27
2023-05-16T14:22:44.957Z,24.18
2023-05-16T14:27:47.038Z,24.08
2023-05-16T14:32:49.064Z,23.96
2023-05-16T14:37:51.648Z,23.97
2023-05-16T14:42:53.827Z,23.78
2023-05-16T14:47:55.980Z,23.67
2023-05-16T14:52:57.934Z,23.64
2023-05-16T14:58:00.983Z,23.52
2023-05-16T15:03:03.013Z,23.51
2023-05-16T15:08:05.159Z,23.42
2023-05-16T15:13:07.198Z,23.33
2023-05-16T15:18:11.311Z,23.28
2023-05-16T15:23:13.300Z,23.19
2023-05-16T15:28:15.189Z,23.14
2023-05-16T15:33:17.200Z,22.95
2023-05-16T15:38:19.176Z,22.83
2023-05-16T15:43:22.374Z,22.72
2023-05-16T15:48:24.282Z,22.59
2023-05-16T15:53:26.540Z,22.53
2023-05-16T15:58:28.705Z,22.44
2023-05-16T16:03:30.764Z,22.36
2023-05-16T16:08:32.873Z,22.27
2023-05-16T16:13:34.921Z,22.16
2023-05-16T16:18:36.954Z,22.12
2023-05-16T16:23:39.224Z,22.03
2023-05-16T16:28:41.307Z,21.96
2023-05-16T16:33:43.371Z,21.90
2023-05-16T16:38:45.288Z,21.75
2023-05-16T16:43:47.369Z,21.60
2023-05-16T16:48:50.260Z,21.50
2023-05-16T16:53:52.169Z,21.39
2023-05-16T16:58:54.495Z,21.32
2023-05-16T17:03:56.542Z,21.25
2023-05-16T17:09:02.570Z,21.17
2023-05-16T17:14:06.329Z,21.01
2023-05-16T17:19:09.031Z,20.99
2023-05-16T17:24:11.341Z,20.86
2023-05-16T17:29:13.483Z,20.71
2023-05-16T17:34:15.454Z,20.67
2023-05-16T17:39:17.454Z,20.58
2023-05-16T17:44:20.418Z,20.53
2023-05-16T17:49:22.776Z,20.45
2023-05-16T17:54:27.244Z,20.39
2023-05-16T17:59:30.078Z,20.28
2023-05-16T18:04:32.194Z,20.23
2023-05-16T18:09:34.191Z,20.19
2023-05-16T18:14:36.109Z,20.12
2023-05-16T18:19:38.081Z,20.02
2023-05-16T18:24:40.151Z,19.88
2023-05-16T18:29:42.483Z,19.82
2023-05-16T18:34:44.397Z,19.76
2023-05-16T18:39:48.553Z,19.70
2023-05-16T18:44:50.789Z,19.66
2023-05-16T18:49:53.248Z,19.66
2023-05-16T18:54:55.251Z,19.55
2023-05-16T18:59:58.374Z,19.49
2023-05-16T19:05:01.583Z,19.40
2023-05-16T19:10:04.481Z,19.29
2023-05-16T19:15:06.797Z,19.27
2023-05-16T19:20:12.096Z,19.23
2023-05-16T19:25:14.159Z,19.18
2023-05-16T19:30:17.137Z,19.08
2023-05-16T19:35:19.711Z,19.04
2023-05-16T19:40:24.386Z,19.02
2023-05-16T19:45:26.744Z,18.95
2023-05-16T19:50:29.113Z,18.88
2023-05-16T19:55:31.653Z,18.83
2023-05-16T20:00:33.907Z,18.79
2023-05-16T20:05:35.829Z,18.73
2023-05-16T20:10:38.322Z,18.63
2023-05-16T20:15:40.436Z,18.49
2023-05-16T20:20:42.311Z,18.48
2023-05-16T20:25:44.250Z,18.45
2023-05-16T20:30:46.115Z,18.37
2023-05-16T20:35:48.070Z,18.29
2023-05-16T20:40:50.058Z,18.28
2023-05-16T20:45:52.116Z,18.25
2023-05-16T20:50:54.735Z,18.22
2023-05-16T20:55:56.768Z,18.23
2023-05-16T21:00:58.695Z,18.19
2023-05-16T21:06:00.835Z,18.15
2023-05-16T21:11:02.819Z,18.08
2023-05-16T21:16:04.785Z,18.09
2023-05-16T21:21:07.251Z,17.97
2023-05-16T21:26:09.150Z,18.08
2023-05-16T21:33:22.979Z,17.44
2023-05-16T21:38:25.071Z,17.26
2023-05-16T21:43:26.917Z,17.69
2023-05-16T21:48:29.025Z,17.09
2023-05-16T21:53:31.238Z,16.93
2023-05-16T21:58:33.345Z,16.76
2023-05-16T22:03:35.443Z,16.77
2023-05-16T22:08:37.693Z,16.71
2023-05-16T22:13:39.527Z,17.16
2023-05-16T22:18:41.748Z,16.70
2023-05-16T22:23:43.866Z,16.58
2023-05-16T22:28:45.742Z,16.95
2023-05-16T22:33:47.884Z,16.47
2023-05-16T22:38:50.499Z,16.38
2023-05-16T22:43:52.927Z,16.34
2023-05-16T22:48:55.205Z,16.32
2023-05-16T22:53:57.305Z,16.25
2023-05-16T22:58:59.156Z,16.68
2023-05-16T23:04:02.165Z,16.19
2023-05-16T23:09:04.920Z,16.08
2023-05-16T23:14:06.970Z,15.93
2023-05-16T23:19:09.802Z,16.32
2023-05-16T23:24:11.960Z,15.82
2023-05-16T23:29:13.801Z,16.18
2023-05-16T23:34:15.766Z,15.75
2023-05-16T23:39:18.156Z,15.69
2023-05-16T23:44:20.215Z,15.64
2023-05-16T23:49:22.160Z,16.05
2023-05-16T23:54:24.310Z,15.57
2023-05-16T23:59:26.550Z,15.43
